createdAt,value
2019-02-26T00:00:51.834Z,9.43
2019-02-26T00:04:10.277Z,8.63
2019-02-26T00:06:39.577Z,8.23
2019-02-26T00:12:48.907Z,8.23
2019-02-26T00:25:06.273Z,7.53
2019-02-26T00:27:35.172Z,7.30
2019-02-26T00:30:06.909Z,6.87
2019-02-26T00:32:38.227Z,7.10
2019-02-26T00:35:07.384Z,7.90
2019-02-26T00:37:36.638Z,7.07
2019-02-26T00:40:07.838Z,7.60
2019-02-26T00:42:38.277Z,6.70
2019-02-26T00:45:07.975Z,6.43
2019-02-26T00:47:38.787Z,7.40
2019-02-26T00:50:09.662Z,6.97
2019-02-26T00:52:40.114Z,6.77
2019-02-26T00:55:10.411Z,6.87
2019-02-26T00:57:40.664Z,7.13
2019-02-26T01:00:14.574Z,7.00
2019-02-26T01:02:43.851Z,6.93
2019-02-26T01:05:15.730Z,5.83
2019-02-26T01:07:47.430Z,6.50
2019-02-26T01:10:18.676Z,7.47
2019-02-26T01:12:47.274Z,5.87
2019-02-26T01:15:16.505Z,6.43
2019-02-26T01:17:45.838Z,6.80
2019-02-26T01:20:15.618Z,7.03
2019-02-26T01:22:45.641Z,6.30
2019-02-26T01:25:15.896Z,5.97
2019-02-26T01:27:48.062Z,6.33
2019-02-26T01:30:24.354Z,6.30
2019-02-26T01:32:54.033Z,7.07
2019-02-26T01:35:23.322Z,6.07
2019-02-26T01:37:54.074Z,6.43
2019-02-26T01:40:25.762Z,6.20
2019-02-26T01:42:57.436Z,6.67
2019-02-26T01:45:27.248Z,6.27
2019-02-26T01:47:59.118Z,6.30
2019-02-26T01:50:30.605Z,6.13
2019-02-26T01:53:01.044Z,6.20
2019-02-26T01:55:30.411Z,7.17
2019-02-26T01:57:59.610Z,6.63
2019-02-26T02:00:28.909Z,6.27
2019-02-26T02:02:58.196Z,6.90
2019-02-26T02:05:29.479Z,6.80
2019-02-26T02:07:58.368Z,6.13
2019-02-26T02:10:27.600Z,5.80
2019-02-26T02:12:59.550Z,6.10
2019-02-26T02:15:27.810Z,6.23
2019-02-26T02:17:57.776Z,6.20
2019-02-26T02:20:27.971Z,7.23
2019-02-26T02:22:58.255Z,6.20
2019-02-26T02:25:31.047Z,6.63
2019-02-26T02:28:02.141Z,6.30
2019-02-26T02:30:31.767Z,6.37
2019-02-26T02:33:02.163Z,6.13
2019-02-26T02:35:31.758Z,6.37
2019-02-26T02:38:02.833Z,6.47
2019-02-26T02:40:32.308Z,6.00
2019-02-26T02:43:09.805Z,6.93
2019-02-26T02:45:35.510Z,6.03
2019-02-26T02:48:06.213Z,6.40
2019-02-26T02:50:35.660Z,6.97
2019-02-26T02:53:07.279Z,6.33
2019-02-26T02:55:37.846Z,6.83
2019-02-26T02:58:07.428Z,6.30
2019-02-26T03:00:38.924Z,6.53
2019-02-26T03:03:08.192Z,6.53
2019-02-26T03:05:40.453Z,6.40
2019-02-26T03:08:13.386Z,6.90
2019-02-26T03:10:43.103Z,6.70
2019-02-26T03:13:14.416Z,6.20
2019-02-26T03:15:43.558Z,5.97
2019-02-26T03:18:14.897Z,6.33
2019-02-26T03:20:45.726Z,5.63
2019-02-26T03:23:18.988Z,5.43
2019-02-26T03:25:47.314Z,6.30
2019-02-26T03:28:16.912Z,6.30
2019-02-26T03:30:46.201Z,5.50
2019-02-26T03:33:15.451Z,5.77
2019-02-26T03:35:44.659Z,5.60
2019-02-26T03:38:15.388Z,5.60
2019-02-26T03:40:44.810Z,5.37
2019-02-26T03:43:16.234Z,5.97
2019-02-26T03:45:47.358Z,5.90
2019-02-26T03:48:19.256Z,6.23
2019-02-26T03:50:47.154Z,6.00
2019-02-26T03:53:16.385Z,5.60
2019-02-26T03:55:45.654Z,5.47
2019-02-26T03:58:14.911Z,5.70
2019-02-26T04:00:46.770Z,5.67
2019-02-26T04:03:17.478Z,6.00
2019-02-26T04:05:46.612Z,6.17
2019-02-26T04:08:16.661Z,6.13
2019-02-26T04:10:47.963Z,5.97
2019-02-26T04:13:17.956Z,5.67
2019-02-26T04:15:47.175Z,6.20
2019-02-26T04:18:16.911Z,5.53
2019-02-26T04:20:46.083Z,6.00
2019-02-26T04:23:18.691Z,6.40
2019-02-26T04:25:59.493Z,6.53
2019-02-26T04:28:37.061Z,6.73
2019-02-26T04:31:52.083Z,6.20
2019-02-26T04:34:53.934Z,5.80
2019-02-26T04:38:08.040Z,6.30
2019-02-26T04:41:29.821Z,6.30
2019-02-26T04:44:39.067Z,5.57
2019-02-26T04:47:24.319Z,6.27
2019-02-26T04:49:57.186Z,7.10
2019-02-26T04:52:32.255Z,6.17
2019-02-26T04:55:03.502Z,5.70
2019-02-26T04:57:32.721Z,6.03
2019-02-26T05:00:05.214Z,6.10
2019-02-26T05:02:37.252Z,6.53
2019-02-26T05:05:06.493Z,6.37
2019-02-26T05:07:38.171Z,6.83
2019-02-26T05:10:07.656Z,6.53
2019-02-26T05:12:39.940Z,6.57
2019-02-26T05:15:11.447Z,5.80
2019-02-26T05:17:43.397Z,5.87
2019-02-26T05:20:15.617Z,6.40
2019-02-26T05:22:44.572Z,6.57
2019-02-26T05:25:16.365Z,6.67
2019-02-26T05:27:47.935Z,9.13
2019-02-26T05:30:18.924Z,5.73
2019-02-26T05:32:54.867Z,5.73
2019-02-26T05:35:25.177Z,5.77
2019-02-26T05:37:57.536Z,5.63
2019-02-26T05:40:25.342Z,5.60
2019-02-26T05:42:56.087Z,5.50
2019-02-26T05:45:27.196Z,5.53
2019-02-26T05:47:58.935Z,6.30
2019-02-26T05:50:30.207Z,5.80
2019-02-26T05:53:01.713Z,6.63
2019-02-26T05:55:30.672Z,5.73
2019-02-26T05:58:01.963Z,6.70
2019-02-26T06:00:33.350Z,5.90
2019-02-26T06:03:03.647Z,6.30
2019-02-26T06:05:33.473Z,11.40
2019-02-26T06:08:02.670Z,6.40
2019-02-26T06:10:32.644Z,6.77
2019-02-26T06:13:02.750Z,6.77
2019-02-26T06:15:34.178Z,6.20
2019-02-26T06:18:03.802Z,6.97
2019-02-26T06:20:36.093Z,7.10
2019-02-26T06:23:03.990Z,8.07
2019-02-26T06:25:33.352Z,7.13
2019-02-26T06:28:06.897Z,6.27
2019-02-26T06:30:34.451Z,7.13
2019-02-26T06:33:09.117Z,9.17
2019-02-26T06:35:44.787Z,6.87
2019-02-26T06:38:14.872Z,8.47
2019-02-26T06:40:49.100Z,7.27
2019-02-26T06:43:23.373Z,7.67
2019-02-26T06:45:55.944Z,8.20
2019-02-26T06:48:32.379Z,6.27
2019-02-26T06:51:04.164Z,6.60
2019-02-26T06:53:35.959Z,6.37
2019-02-26T06:56:05.271Z,6.40
2019-02-26T06:58:48.538Z,6.67
2019-02-26T07:01:18.870Z,7.43
2019-02-26T07:03:49.589Z,7.83
2019-02-26T07:06:22.965Z,6.63
2019-02-26T07:08:55.595Z,8.10
2019-02-26T07:11:31.346Z,8.67
2019-02-26T07:14:01.294Z,9.83
2019-02-26T07:16:31.645Z,10.10
2019-02-26T07:19:01.236Z,9.43
2019-02-26T07:21:31.953Z,9.00
2019-02-26T07:24:03.653Z,8.67
2019-02-26T07:26:33.714Z,8.40
2019-02-26T07:29:05.687Z,11.97
2019-02-26T07:31:35.525Z,9.03
2019-02-26T07:34:05.589Z,8.47
2019-02-26T07:36:35.078Z,9.07
2019-02-26T07:39:05.214Z,9.67
2019-02-26T07:41:34.511Z,8.47
2019-02-26T07:44:03.731Z,8.23
2019-02-26T07:46:35.454Z,7.87
2019-02-26T07:49:04.739Z,7.43
2019-02-26T07:51:36.421Z,8.60
2019-02-26T07:54:06.272Z,11.10
2019-02-26T07:56:35.677Z,7.87
2019-02-26T07:59:09.438Z,7.93
2019-02-26T08:01:37.575Z,6.50
2019-02-26T08:04:09.354Z,8.87
2019-02-26T08:06:38.494Z,6.90
2019-02-26T08:09:10.934Z,6.57
2019-02-26T08:11:41.368Z,8.20
2019-02-26T08:14:10.241Z,7.40
2019-02-26T08:16:39.498Z,6.07
2019-02-26T08:19:08.693Z,7.07
2019-02-26T08:21:37.985Z,6.90
2019-02-26T08:24:07.267Z,6.80
2019-02-26T08:26:38.105Z,7.40
2019-02-26T08:29:09.398Z,7.17
2019-02-26T08:31:42.419Z,7.87
2019-02-26T08:34:12.671Z,7.97
2019-02-26T08:36:40.319Z,7.17
2019-02-26T08:39:12.411Z,7.20
2019-02-26T08:41:41.200Z,7.80
2019-02-26T08:44:10.554Z,7.40
2019-02-26T08:46:42.085Z,7.50
2019-02-26T08:49:13.274Z,7.93
2019-02-26T08:51:42.454Z,8.33
2019-02-26T08:54:20.597Z,8.03
2019-02-26T08:56:42.656Z,7.27
2019-02-26T08:59:12.052Z,8.03
2019-02-26T09:01:41.347Z,7.37
2019-02-26T09:04:12.254Z,7.50
2019-02-26T09:06:41.500Z,7.80
2019-02-26T09:09:10.713Z,7.10
2019-02-26T09:11:39.988Z,7.40
2019-02-26T09:14:11.532Z,10.40
2019-02-26T09:16:40.224Z,9.43
2019-02-26T09:19:09.606Z,10.10
2019-02-26T09:21:39.504Z,8.83
2019-02-26T09:24:09.786Z,8.97
2019-02-26T09:26:40.731Z,8.77
2019-02-26T09:29:12.153Z,8.43
2019-02-26T09:31:40.906Z,7.80
2019-02-26T09:34:10.391Z,7.17
2019-02-26T09:36:39.617Z,8.37
2019-02-26T09:39:10.758Z,8.20
2019-02-26T09:41:40.317Z,7.73
2019-02-26T09:44:11.678Z,8.27
2019-02-26T09:46:43.512Z,8.40
2019-02-26T09:49:12.610Z,8.73
2019-02-26T09:51:41.874Z,8.20
2019-02-26T09:54:13.218Z,7.73
2019-02-26T09:56:42.088Z,9.30
2019-02-26T09:59:13.023Z,8.37
2019-02-26T10:01:42.856Z,8.77
2019-02-26T10:04:12.164Z,9.40
2019-02-26T10:06:42.618Z,8.43
2019-02-26T10:09:14.037Z,9.73
2019-02-26T10:11:46.923Z,9.40
2019-02-26T10:14:15.597Z,9.33
2019-02-26T10:16:46.947Z,7.63
2019-02-26T10:19:17.277Z,9.40
2019-02-26T10:21:47.045Z,8.20
2019-02-26T10:24:22.176Z,8.97
2019-02-26T10:26:49.411Z,9.27
2019-02-26T10:29:18.666Z,9.20
2019-02-26T10:31:47.852Z,8.40
2019-02-26T10:34:25.549Z,8.57
2019-02-26T10:36:53.633Z,9.23
2019-02-26T10:39:23.722Z,7.57
2019-02-26T10:41:53.900Z,8.03
2019-02-26T10:44:23.102Z,7.40
2019-02-26T10:46:52.458Z,8.07
2019-02-26T10:49:21.736Z,7.93
2019-02-26T10:51:50.962Z,8.67
2019-02-26T10:54:20.188Z,15.53
2019-02-26T10:56:49.337Z,8.37
2019-02-26T10:59:19.637Z,8.00
2019-02-26T11:01:51.673Z,6.47
2019-02-26T11:04:20.001Z,6.73
2019-02-26T11:06:49.216Z,7.93
2019-02-26T11:09:22.152Z,6.70
2019-02-26T11:11:49.267Z,6.47
2019-02-26T11:14:19.467Z,6.27
2019-02-26T11:16:48.810Z,6.90
2019-02-26T11:19:18.861Z,6.27
2019-02-26T11:21:50.698Z,8.13
2019-02-26T11:24:19.681Z,5.83
2019-02-26T11:26:48.967Z,6.33
2019-02-26T11:29:20.951Z,7.70
2019-02-26T11:31:50.142Z,5.30
2019-02-26T11:34:19.314Z,5.07
2019-02-26T11:36:48.581Z,5.50
2019-02-26T11:39:17.825Z,6.07
2019-02-26T11:41:48.275Z,5.17
2019-02-26T11:44:20.585Z,4.20
2019-02-26T11:46:51.295Z,4.70
2019-02-26T11:49:21.832Z,4.40
2019-02-26T11:51:50.867Z,5.43
2019-02-26T11:54:20.265Z,5.97
2019-02-26T11:56:50.657Z,5.53
2019-02-26T11:59:20.609Z,4.97
2019-02-26T12:01:49.890Z,5.73
2019-02-26T12:04:19.292Z,5.60
2019-02-26T12:06:48.579Z,6.53
2019-02-26T12:09:17.848Z,5.63
2019-02-26T12:11:53.178Z,6.17
2019-02-26T12:14:22.399Z,6.43
2019-02-26T12:16:51.587Z,5.20
2019-02-26T12:19:22.938Z,4.97
2019-02-26T12:21:52.767Z,5.30
2019-02-26T12:24:24.187Z,6.17
2019-02-26T12:26:54.695Z,5.50
2019-02-26T12:29:25.845Z,6.67
2019-02-26T12:31:55.739Z,5.10
2019-02-26T12:34:25.862Z,6.67
2019-02-26T12:36:57.305Z,6.37
2019-02-26T12:39:31.197Z,6.80
2019-02-26T12:41:59.070Z,8.10
2019-02-26T12:44:29.120Z,8.73
2019-02-26T12:47:00.411Z,6.87
2019-02-26T12:49:32.590Z,6.60
2019-02-26T12:52:03.262Z,7.10
2019-02-26T12:54:33.678Z,6.77
2019-02-26T12:57:04.264Z,7.03
2019-02-26T12:59:33.505Z,7.83
2019-02-26T13:02:05.580Z,6.63
2019-02-26T13:04:34.033Z,6.17
2019-02-26T13:07:05.564Z,6.30
2019-02-26T13:09:34.214Z,6.40
2019-02-26T13:12:03.448Z,7.57
2019-02-26T13:14:32.757Z,6.93
2019-02-26T13:17:01.930Z,7.63
2019-02-26T13:19:33.432Z,7.17
2019-02-26T13:22:08.247Z,7.43
2019-02-26T13:24:33.038Z,7.40
2019-02-26T13:27:02.218Z,7.47
2019-02-26T13:29:31.552Z,8.45
2019-02-26T13:32:02.438Z,8.48
2019-02-26T13:34:33.220Z,9.03
2019-02-26T13:37:04.253Z,8.25
2019-02-26T13:39:38.370Z,8.63
2019-02-26T13:42:10.132Z,8.75
2019-02-26T13:44:36.375Z,8.28
2019-02-26T13:47:05.611Z,7.92
2019-02-26T13:49:34.910Z,9.40
2019-02-26T13:52:04.107Z,8.40
2019-02-26T13:54:33.415Z,9.45
2019-02-26T13:57:02.634Z,9.35
2019-02-26T13:59:31.853Z,9.23
2019-02-26T14:02:01.145Z,9.18
2019-02-26T14:04:30.344Z,9.03
2019-02-26T14:06:59.559Z,9.20
2019-02-26T14:09:28.779Z,9.50
2019-02-26T14:11:58.004Z,9.95
2019-02-26T14:14:29.262Z,10.45
2019-02-26T14:16:58.683Z,10.40
2019-02-26T14:19:27.934Z,10.82
2019-02-26T14:21:59.809Z,10.63
2019-02-26T14:24:28.978Z,10.58
2019-02-26T14:26:58.221Z,9.63
2019-02-26T14:29:27.501Z,9.35
2019-02-26T14:31:56.657Z,9.65
2019-02-26T14:34:25.966Z,9.87
2019-02-26T14:36:56.059Z,8.43
2019-02-26T14:39:25.247Z,8.27
2019-02-26T14:41:54.555Z,9.73
2019-02-26T14:44:23.786Z,9.10
2019-02-26T14:46:53.076Z,9.30
2019-02-26T14:49:24.611Z,9.00
2019-02-26T14:51:53.772Z,9.20
2019-02-26T14:54:22.966Z,9.83
2019-02-26T14:56:52.188Z,9.33
2019-02-26T14:59:22.278Z,8.30
2019-02-26T15:01:51.561Z,9.03
2019-02-26T15:04:21.073Z,8.97
2019-02-26T15:06:50.308Z,9.73
2019-02-26T15:09:19.481Z,9.53
2019-02-26T15:11:48.964Z,9.17
2019-02-26T15:14:18.227Z,9.57
2019-02-26T15:16:47.419Z,11.70
2019-02-26T15:19:18.658Z,10.83
2019-02-26T15:21:47.869Z,10.00
2019-02-26T15:24:17.200Z,9.30
2019-02-26T15:26:49.234Z,9.77
2019-02-26T15:29:18.569Z,9.30
2019-02-26T15:31:47.859Z,10.60
2019-02-26T15:34:19.834Z,9.80
2019-02-26T15:36:49.088Z,9.77
2019-02-26T15:39:18.303Z,8.83
2019-02-26T15:41:48.207Z,9.17
2019-02-26T15:44:18.651Z,10.03
2019-02-26T15:46:47.965Z,9.10
2019-02-26T15:49:17.220Z,8.37
2019-02-26T15:51:48.778Z,8.70
2019-02-26T15:54:17.727Z,8.63
2019-02-26T15:56:47.094Z,9.67
2019-02-26T15:59:19.138Z,10.43
2019-02-26T16:01:48.374Z,8.07
2019-02-26T16:04:17.549Z,7.33
2019-02-26T16:06:46.806Z,6.80
2019-02-26T16:09:16.250Z,6.20
2019-02-26T16:11:45.473Z,7.37
2019-02-26T16:14:14.622Z,7.77
2019-02-26T16:16:43.826Z,6.70
2019-02-26T16:19:13.122Z,7.27
2019-02-26T16:21:42.710Z,7.47
2019-02-26T16:24:11.978Z,7.43
2019-02-26T16:26:41.568Z,7.83
2019-02-26T16:29:10.823Z,8.77
2019-02-26T16:31:40.138Z,7.50
2019-02-26T16:34:09.368Z,6.53
2019-02-26T16:36:38.622Z,5.80
2019-02-26T16:39:08.082Z,6.50
2019-02-26T16:41:38.307Z,6.70
2019-02-26T16:44:08.528Z,7.30
2019-02-26T16:46:39.573Z,6.30
2019-02-26T16:49:08.716Z,7.13
2019-02-26T16:51:37.941Z,7.13
2019-02-26T16:54:07.495Z,6.33
2019-02-26T16:56:37.359Z,7.23
2019-02-26T16:59:07.863Z,8.07
2019-02-26T17:01:38.082Z,7.00
2019-02-26T17:04:07.694Z,7.23
2019-02-26T17:06:37.599Z,7.07
2019-02-26T17:09:07.942Z,7.00
2019-02-26T17:11:39.297Z,8.00
2019-02-26T17:14:08.585Z,7.37
2019-02-26T17:16:37.832Z,8.10
2019-02-26T17:19:07.175Z,7.47
2019-02-26T17:21:36.450Z,7.70
2019-02-26T17:24:06.020Z,8.80
2019-02-26T17:26:37.694Z,8.50
2019-02-26T17:29:07.034Z,9.10
2019-02-26T17:31:36.313Z,8.97
2019-02-26T17:34:05.529Z,9.17
2019-02-26T17:36:35.492Z,9.47
2019-02-26T17:39:06.422Z,8.23
2019-02-26T17:41:35.930Z,8.90
2019-02-26T17:44:05.541Z,8.97
2019-02-26T17:46:35.080Z,8.77
2019-02-26T17:49:04.593Z,8.73
2019-02-26T17:51:34.033Z,9.20
2019-02-26T17:54:04.049Z,9.50
2019-02-26T17:56:34.126Z,8.80
2019-02-26T17:59:03.462Z,8.03
2019-02-26T18:01:32.788Z,8.77
2019-02-26T18:04:02.120Z,8.77
2019-02-26T18:06:31.893Z,8.53
2019-02-26T18:09:01.301Z,9.17
2019-02-26T18:11:33.207Z,9.00
2019-02-26T18:14:02.965Z,8.17
2019-02-26T18:16:34.401Z,7.83
2019-02-26T18:19:03.398Z,16.00
2019-02-26T18:21:32.683Z,21.10
2019-02-26T18:24:04.590Z,11.60
2019-02-26T18:26:35.130Z,11.37
2019-02-26T18:29:07.513Z,10.43
2019-02-26T18:31:36.790Z,12.27
2019-02-26T18:34:06.309Z,10.70
2019-02-26T18:36:35.743Z,10.43
2019-02-26T18:39:06.587Z,9.47
2019-02-26T18:41:36.157Z,8.73
2019-02-26T18:44:04.615Z,9.30
2019-02-26T18:46:34.624Z,9.53
2019-02-26T18:49:05.154Z,13.30
2019-02-26T18:51:36.489Z,9.67
2019-02-26T18:54:06.415Z,9.00
2019-02-26T18:56:38.670Z,9.77
2019-02-26T18:59:07.219Z,8.77
2019-02-26T19:01:36.488Z,8.60
2019-02-26T19:04:16.300Z,9.37
2019-02-26T19:06:46.388Z,9.37
2019-02-26T19:09:18.120Z,8.63
2019-02-26T19:11:48.379Z,9.17
2019-02-26T19:14:19.965Z,9.67
2019-02-26T19:16:54.196Z,9.33
2019-02-26T19:19:21.084Z,9.20
2019-02-26T19:21:51.748Z,9.17
2019-02-26T19:24:23.367Z,10.40
2019-02-26T19:26:53.400Z,10.30
2019-02-26T19:29:23.120Z,10.90
2019-02-26T19:31:52.353Z,9.33
2019-02-26T19:34:21.621Z,9.57
2019-02-26T19:36:59.059Z,10.43
2019-02-26T19:39:33.570Z,9.70
2019-02-26T19:42:01.674Z,9.57
2019-02-26T19:44:35.681Z,10.43
2019-02-26T19:47:04.879Z,10.47
2019-02-26T19:49:34.126Z,11.57
2019-02-26T19:52:04.891Z,10.93
2019-02-26T19:54:34.443Z,10.30
2019-02-26T19:57:03.792Z,9.03
2019-02-26T19:59:33.141Z,10.67
2019-02-26T20:02:02.859Z,10.43
2019-02-26T20:04:32.227Z,9.70
2019-02-26T20:07:01.485Z,10.67
2019-02-26T20:09:34.111Z,9.87
2019-02-26T20:12:03.623Z,10.90
2019-02-26T20:14:33.326Z,11.10
2019-02-26T20:17:13.771Z,10.17
2019-02-26T20:19:34.513Z,10.37
2019-02-26T20:22:03.842Z,10.57
2019-02-26T20:24:35.900Z,10.97
2019-02-26T20:27:05.280Z,10.57
2019-02-26T20:29:35.268Z,10.93
2019-02-26T20:32:04.744Z,11.43
2019-02-26T20:34:38.883Z,10.87
2019-02-26T20:37:08.345Z,10.70
2019-02-26T20:39:40.423Z,11.10
2019-02-26T20:42:08.941Z,11.03
2019-02-26T20:44:38.199Z,11.80
2019-02-26T20:47:07.410Z,11.20
2019-02-26T20:49:39.227Z,11.23
2019-02-26T20:52:08.912Z,10.60
2019-02-26T20:54:38.280Z,11.83
2019-02-26T20:57:08.380Z,11.40
2019-02-26T20:59:37.802Z,11.63
2019-02-26T21:02:07.105Z,11.53
2019-02-26T21:04:36.532Z,11.77
2019-02-26T21:07:05.876Z,11.53
2019-02-26T21:09:40.312Z,11.43
2019-02-26T21:12:08.859Z,11.13
2019-02-26T21:14:38.679Z,11.77
2019-02-26T21:17:12.538Z,11.47
2019-02-26T21:19:41.875Z,11.33
2019-02-26T21:22:11.097Z,10.07
2019-02-26T21:24:40.548Z,10.77
2019-02-26T21:27:12.845Z,11.43
2019-02-26T21:30:01.509Z,11.17
2019-02-26T21:32:30.846Z,11.40
2019-02-26T21:35:01.962Z,11.23
2019-02-26T21:37:32.818Z,10.60
2019-02-26T21:40:02.283Z,11.50
2019-02-26T21:42:31.581Z,10.53
2019-02-26T21:45:00.842Z,10.30
2019-02-26T21:47:30.118Z,10.97
2019-02-26T21:49:59.320Z,10.90
2019-02-26T21:52:28.524Z,10.67
2019-02-26T21:54:58.585Z,10.73
2019-02-26T21:57:28.651Z,10.70
2019-02-26T21:59:57.830Z,10.37
2019-02-26T22:02:27.117Z,9.97
2019-02-26T22:04:56.353Z,10.50
2019-02-26T22:07:25.626Z,10.13
2019-02-26T22:09:54.860Z,9.37
2019-02-26T22:12:24.738Z,9.77
2019-02-26T22:14:54.042Z,10.37
2019-02-26T22:17:25.208Z,9.43
2019-02-26T22:19:54.507Z,10.37
2019-02-26T22:22:26.783Z,11.03
2019-02-26T22:24:57.725Z,10.40
2019-02-26T22:27:27.079Z,9.50
2019-02-26T22:29:56.611Z,10.70
2019-02-26T22:32:25.859Z,9.53
2019-02-26T22:34:55.466Z,9.80
2019-02-26T22:37:24.678Z,10.33
2019-02-26T22:39:55.854Z,10.30
2019-02-26T22:42:26.510Z,10.70
2019-02-26T22:44:55.796Z,10.23
2019-02-26T22:47:25.018Z,11.17
2019-02-26T22:49:54.819Z,10.70
2019-02-26T22:52:24.745Z,10.47
2019-02-26T22:54:56.765Z,11.10
2019-02-26T22:57:27.607Z,10.67
2019-02-26T23:00:07.684Z,12.13
2019-02-26T23:02:40.616Z,11.20
2019-02-26T23:05:09.228Z,11.00
2019-02-26T23:07:39.469Z,10.57
2019-02-26T23:10:09.132Z,11.93
2019-02-26T23:12:38.465Z,12.47
2019-02-26T23:15:09.638Z,10.87
2019-02-26T23:17:39.416Z,12.07
2019-02-26T23:20:09.915Z,10.47
2019-02-26T23:22:39.680Z,12.60
2019-02-26T23:25:09.162Z,12.17
2019-02-26T23:27:38.360Z,11.43
2019-02-26T23:30:09.588Z,11.90
2019-02-26T23:32:39.541Z,10.27
2019-02-26T23:35:10.479Z,10.87
2019-02-26T23:37:39.666Z,10.67
2019-02-26T23:40:09.311Z,11.37
2019-02-26T23:42:39.601Z,11.80
2019-02-26T23:45:09.171Z,10.83
2019-02-26T23:47:38.503Z,11.03
2019-02-26T23:50:07.673Z,11.03
2019-02-26T23:52:37.868Z,11.80
2019-02-26T23:55:07.067Z,12.83
2019-02-26T23:57:37.357Z,11.73
